Time;durP1;ratioP1;P1;durP2;ratioP2;P2;SDS_P1;SDS_P2;PMS_P1;PMS_P2;Temp;Humidity;BMP_temperature;BMP_pressure;BME280_temperature;BME280_humidity;BME280_pressure;Samples;Min_cycle;Max_cycle;Signal;HPM_P1;HPM_P2
2024/02/12 00:02:18;;;;;;;5.15;2.95;;;12.10;67.50;;;;;;6284746;28;20448;-74
2024/02/12 00:05:21;;;;;;;2.40;1.55;;;12.00;67.70;;;;;;6282835;28;20040;-74
2024/02/12 00:08:21;;;;;;;7.38;2.35;;;12.00;68.10;;;;;;6287772;28;20035;-75
2024/02/12 00:11:24;;;;;;;5.38;2.95;;;11.90;68.20;;;;;;6302538;28;20021;-75
2024/02/12 00:14:25;;;;;;;5.57;2.90;;;11.90;68.40;;;;;;6291105;28;20480;-76
2024/02/12 00:17:28;;;;;;;4.22;2.63;;;11.90;69.40;;;;;;6283770;28;20024;-74
2024/02/12 00:20:30;;;;;;;10.82;2.90;;;11.90;68.70;;;;;;6304193;28;20021;-74
2024/02/12 00:24:08;;;;;;;3.67;2.20;;;11.80;68.80;;;;;;6294709;28;20035;-75
2024/02/12 00:27:08;;;;;;;7.93;2.55;;;11.80;69.00;;;;;;6289829;28;20403;-75
2024/02/12 00:30:12;;;;;;;3.63;2.50;;;11.70;69.10;;;;;;6303251;28;20012;-74
2024/02/12 00:33:13;;;;;;;4.93;2.38;;;11.70;69.20;;;;;;6303201;28;20092;-74
2024/02/12 00:36:20;;;;;;;9.27;2.53;;;11.70;69.30;;;;;;6304642;28;20032;-75
2024/02/12 00:39:23;;;;;;;5.33;2.77;;;11.80;69.20;;;;;;6306423;28;20012;-73
2024/02/12 00:42:24;;;;;;;7.18;3.20;;;11.80;69.10;;;;;;6282227;28;20727;-76
2024/02/12 00:45:26;;;;;;;6.78;3.22;;;11.90;69.10;;;;;;6279414;28;20417;-75
2024/02/12 00:48:29;;;;;;;10.93;4.18;;;11.90;69.10;;;;;;6284717;28;20051;-74
2024/02/12 00:51:29;;;;;;;4.40;3.33;;;11.90;69.10;;;;;;6306025;28;20291;-76
2024/02/12 00:54:32;;;;;;;8.65;4.20;;;11.90;69.10;;;;;;6290284;28;20175;-74
2024/02/12 00:57:34;;;;;;;6.85;3.63;;;12.00;69.10;;;;;;6280999;28;20097;-75
2024/02/12 01:00:35;;;;;;;9.65;3.65;;;12.00;69.00;;;;;;6280047;28;20109;-75
2024/02/12 01:03:36;;;;;;;10.77;3.78;;;12.00;68.90;;;;;;6298415;28;20368;-74
2024/02/12 01:06:38;;;;;;;8.25;4.00;;;12.00;68.90;;;;;;6290927;28;20057;-74
2024/02/12 01:09:39;;;;;;;4.78;3.00;;;12.10;68.90;;;;;;6279479;28;20115;-75
2024/02/12 01:12:42;;;;;;;7.93;3.55;;;12.10;68.80;;;;;;6280595;28;20027;-74
2024/02/12 01:15:49;;;;;;;9.15;3.97;;;12.10;68.80;;;;;;6292288;28;20098;-74
2024/02/12 01:18:53;;;;;;;6.03;2.90;;;12.10;68.70;;;;;;6282611;28;20080;-76
2024/02/12 01:21:54;;;;;;;9.65;3.63;;;12.10;68.60;;;;;;6294223;28;20057;-75
2024/02/12 01:24:58;;;;;;;6.57;3.50;;;12.10;68.60;;;;;;6282983;28;20087;-75
2024/02/12 01:28:00;;;;;;;6.25;3.60;;;12.10;68.70;;;;;;6275727;28;20128;-74
2024/02/12 01:31:00;;;;;;;8.20;3.97;;;12.10;68.60;;;;;;6277376;28;20047;-74
2024/02/12 01:34:04;;;;;;;6.75;3.25;;;12.10;68.60;;;;;;6293818;28;20464;-74
2024/02/12 01:37:05;;;;;;;9.57;4.15;;;12.10;68.70;;;;;;6280102;28;20507;-73
2024/02/12 01:40:08;;;;;;;7.32;3.50;;;12.00;68.70;;;;;;6293617;28;20028;-74
2024/02/12 01:43:26;;;;;;;7.88;3.90;;;12.00;68.80;;;;;;6294403;28;20013;-74
2024/02/12 01:46:27;;;;;;;7.03;4.30;;;12.00;68.80;;;;;;6281250;28;20565;-74
2024/02/12 01:49:28;;;;;;;7.20;4.30;;;12.10;68.90;;;;;;6280080;28;20017;-75
2024/02/12 01:52:30;;;;;;;7.53;3.15;;;12.00;68.90;;;;;;6280395;28;20028;-75
2024/02/12 01:55:31;;;;;;;6.57;3.75;;;12.00;68.70;;;;;;6280902;28;20040;-73
2024/02/12 01:58:43;;;;;;;7.22;3.53;;;12.10;68.80;;;;;;6283357;28;20447;-75
2024/02/12 02:01:47;;;;;;;6.78;3.35;;;12.10;68.70;;;;;;6298490;28;20128;-75
2024/02/12 02:04:48;;;;;;;5.75;2.60;;;12.00;68.60;;;;;;6288819;28;20032;-74
2024/02/12 02:08:19;;;;;;;6.28;3.15;;;12.10;68.60;;;;;;6285006;28;20077;-73
2024/02/12 02:11:45;;;;;;;8.18;3.50;;;12.00;68.50;;;;;;6284013;28;20442;-75
2024/02/12 02:14:46;;;;;;;5.38;3.28;;;11.90;68.40;;;;;;6288718;28;20040;-75
2024/02/12 02:17:47;;;;;;;6.25;3.15;;;12.00;68.40;;;;;;6284808;28;20020;-75
2024/02/12 02:20:48;;;;;;;6.25;3.80;;;11.90;68.30;;;;;;6291939;28;20017;-74
2024/02/12 02:23:51;;;;;;;9.90;4.18;;;11.90;68.50;;;;;;6297973;28;20797;-74
2024/02/12 02:26:52;;;;;;;9.55;4.00;;;11.80;68.50;;;;;;6292590;28;20048;-74
2024/02/12 02:29:53;;;;;;;7.68;3.28;;;11.70;68.60;;;;;;6287846;28;20020;-74
2024/02/12 02:32:54;;;;;;;6.68;3.40;;;11.60;68.70;;;;;;6283770;28;20496;-76
2024/02/12 02:35:55;;;;;;;8.48;4.10;;;11.60;68.90;;;;;;6286936;28;20032;-75
2024/02/12 02:39:01;;;;;;;6.13;3.17;;;11.50;69.00;;;;;;6288350;28;20504;-75
2024/02/12 02:42:03;;;;;;;5.13;3.63;;;11.50;69.00;;;;;;6284348;28;20103;-74
2024/02/12 02:45:08;;;;;;;8.18;3.58;;;11.50;69.20;;;;;;6284860;28;20374;-75
2024/02/12 02:48:09;;;;;;;7.40;3.70;;;11.50;69.30;;;;;;6282938;28;20032;-74
2024/02/12 02:51:10;;;;;;;4.75;3.38;;;11.50;69.20;;;;;;6298106;28;20024;-74
2024/02/12 02:54:12;;;;;;;11.23;3.45;;;11.40;69.10;;;;;;6295176;28;20064;-73
2024/02/12 02:57:13;;;;;;;6.20;3.00;;;11.40;69.20;;;;;;6307423;28;20226;-75
2024/02/12 03:00:15;;;;;;;6.10;3.40;;;11.40;69.20;;;;;;6300839;28;20036;-75
2024/02/12 03:03:16;;;;;;;5.93;3.55;;;11.40;69.30;;;;;;6296207;28;20020;-75
2024/02/12 03:06:17;;;;;;;2.85;2.25;;;11.40;69.40;;;;;;6281511;28;20089;-74
2024/02/12 03:09:18;;;;;;;4.43;2.85;;;11.40;69.40;;;;;;6282494;28;20017;-74
2024/02/12 03:12:19;;;;;;;8.10;3.40;;;11.40;69.40;;;;;;6304929;28;20476;-73
2024/02/12 03:15:20;;;;;;;7.72;3.72;;;11.40;69.40;;;;;;6294185;28;20059;-75
2024/02/12 03:18:22;;;;;;;9.00;3.78;;;11.50;69.40;;;;;;6296932;28;20021;-74
2024/02/12 03:21:23;;;;;;;5.45;3.42;;;11.50;69.30;;;;;;6279807;28;20057;-76
2024/02/12 03:24:24;;;;;;;7.43;3.90;;;11.50;69.20;;;;;;6279513;28;20047;-75
2024/02/12 03:27:25;;;;;;;4.10;2.72;;;11.60;69.30;;;;;;6306054;28;20059;-76
2024/02/12 03:30:26;;;;;;;5.68;3.28;;;11.60;69.20;;;;;;6307167;28;20012;-75
2024/02/12 03:33:27;;;;;;;6.93;3.35;;;11.70;69.10;;;;;;6294988;28;20067;-75
2024/02/12 03:36:28;;;;;;;5.60;3.67;;;11.70;68.90;;;;;;6295151;28;20024;-75
2024/02/12 03:39:29;;;;;;;7.15;3.78;;;11.80;68.80;;;;;;6285847;28;20112;-75
2024/02/12 03:42:30;;;;;;;7.43;3.60;;;11.80;68.70;;;;;;6291470;28;20020;-74
2024/02/12 03:45:31;;;;;;;10.27;4.32;;;11.80;68.50;;;;;;6303893;28;20017;-74
2024/02/12 04:01:49;;;;;;;5.43;3.08;;;11.90;68.10;;;;;;6296902;28;20051;-75
2024/02/12 04:04:50;;;;;;;4.93;2.85;;;11.80;68.10;;;;;;6279101;28;20025;-74
2024/02/12 04:07:51;;;;;;;4.43;2.67;;;11.80;68.00;;;;;;6298856;28;20175;-76
2024/02/12 04:10:55;;;;;;;4.65;2.67;;;11.80;67.90;;;;;;6292395;28;20090;-75
2024/02/12 04:13:56;;;;;;;3.90;2.30;;;11.70;67.80;;;;;;6295559;28;20024;-75
2024/02/12 04:16:58;;;;;;;6.85;3.22;;;11.80;67.90;;;;;;6283581;28;20384;-75
2024/02/12 04:20:01;;;;;;;5.63;2.70;;;11.80;67.90;;;;;;6280821;28;20493;-75
2024/02/12 04:23:02;;;;;;;3.25;2.50;;;11.80;67.70;;;;;;6301862;28;20031;-76
2024/02/12 04:26:03;;;;;;;7.13;2.80;;;11.80;67.50;;;;;;6274421;28;20020;-74
2024/02/12 04:29:07;;;;;;;6.80;3.78;;;11.80;67.60;;;;;;6288308;28;20019;-75
2024/02/12 04:32:11;;;;;;;5.88;3.65;;;11.80;67.50;;;;;;6281360;28;20030;-74
2024/02/12 04:35:13;;;;;;;7.45;4.00;;;11.80;67.50;;;;;;6290429;28;20107;-74
2024/02/12 04:38:14;;;;;;;7.07;3.08;;;11.80;67.60;;;;;;6305987;28;20020;-75
2024/02/12 04:41:15;;;;;;;5.10;3.55;;;11.70;67.60;;;;;;6292952;28;20569;-73
2024/02/12 04:44:15;;;;;;;6.28;3.65;;;11.60;67.60;;;;;;6282225;28;20044;-74
2024/02/12 04:47:16;;;;;;;7.75;4.28;;;11.70;67.90;;;;;;6293056;28;20020;-75
2024/02/12 04:50:18;;;;;;;5.63;3.53;;;11.60;68.10;;;;;;6284279;28;20032;-76
2024/02/12 04:53:19;;;;;;;8.18;4.32;;;11.60;68.20;;;;;;6302621;28;20020;-74
2024/02/12 04:56:19;;;;;;;12.13;4.53;;;11.60;68.40;;;;;;6273952;28;20066;-74
2024/02/12 04:59:21;;;;;;;8.48;4.30;;;11.70;68.50;;;;;;6289041;28;20173;-75
2024/02/12 05:02:22;;;;;;;8.65;3.85;;;11.70;68.40;;;;;;6292381;28;20798;-74
2024/02/12 05:05:23;;;;;;;14.45;4.35;;;11.70;68.30;;;;;;6268654;28;20051;-75
2024/02/12 05:08:23;;;;;;;6.28;3.90;;;11.70;68.30;;;;;;6276033;28;20125;-75
2024/02/12 05:11:26;;;;;;;7.45;3.85;;;11.80;68.30;;;;;;6272498;28;20012;-74
2024/02/12 05:14:27;;;;;;;12.07;4.45;;;11.70;68.20;;;;;;6280844;28;20038;-74
2024/02/12 05:17:41;;;;;;;9.65;3.83;;;11.80;68.20;;;;;;6295213;28;20055;-74
2024/02/12 05:24:02;;;;;;;8.20;4.95;;;11.80;68.10;;;;;;6273722;28;20027;-75
2024/02/12 05:27:03;;;;;;;9.48;3.92;;;11.80;68.10;;;;;;6262004;28;20028;-75
2024/02/12 05:30:06;;;;;;;8.43;4.80;;;11.80;68.10;;;;;;6280245;28;20040;-74
2024/02/12 05:33:09;;;;;;;8.55;4.78;;;11.80;67.90;;;;;;6291356;28;20456;-74
2024/02/12 05:36:14;;;;;;;10.43;4.38;;;11.90;67.90;;;;;;6283595;28;20116;-74
2024/02/12 05:39:16;;;;;;;9.77;4.63;;;11.80;67.80;;;;;;6294166;28;21663;-74
2024/02/12 05:42:17;;;;;;;7.75;4.53;;;11.90;67.80;;;;;;6278510;28;20533;-75
2024/02/12 05:45:18;;;;;;;13.40;4.82;;;11.90;67.80;;;;;;6296532;28;20105;-73
2024/02/12 05:48:19;;;;;;;7.57;3.75;;;11.90;67.80;;;;;;6289473;28;20498;-74
2024/02/12 05:51:20;;;;;;;7.45;4.32;;;12.00;67.80;;;;;;6279816;28;20032;-73
2024/02/12 05:54:21;;;;;;;10.35;4.10;;;12.00;67.70;;;;;;6287015;28;20048;-74
2024/02/12 05:57:22;;;;;;;15.30;5.32;;;12.00;67.60;;;;;;6284061;28;20453;-76
2024/02/12 06:00:23;;;;;;;8.43;4.15;;;12.00;68.40;;;;;;6280657;28;20081;-74
2024/02/12 06:03:23;;;;;;;13.27;4.75;;;12.00;67.40;;;;;;6283827;28;20021;-75
2024/02/12 06:06:25;;;;;;;10.98;5.30;;;12.00;67.40;;;;;;6282674;28;20024;-75
2024/02/12 06:09:27;;;;;;;8.27;4.05;;;12.00;67.30;;;;;;6283128;28;20024;-73
2024/02/12 06:12:28;;;;;;;8.10;4.32;;;11.90;67.30;;;;;;6283788;28;20028;-75
2024/02/12 06:15:31;;;;;;;8.93;4.20;;;12.00;67.40;;;;;;6284125;28;20039;-76
2024/02/12 06:18:32;;;;;;;16.38;4.35;;;11.90;67.40;;;;;;6283251;28;20035;-74
2024/02/12 06:21:35;;;;;;;7.80;4.50;;;11.90;67.30;;;;;;6285324;28;20036;-74
2024/02/12 06:24:36;;;;;;;9.88;4.30;;;11.90;67.10;;;;;;6282773;28;20028;-75
2024/02/12 06:27:37;;;;;;;8.80;5.05;;;11.90;67.10;;;;;;6262844;28;20039;-74
2024/02/12 06:30:38;;;;;;;8.25;4.47;;;11.90;67.20;;;;;;6301061;28;20020;-74
2024/02/12 06:33:39;;;;;;;12.00;5.30;;;11.90;67.20;;;;;;6286499;28;20537;-73
2024/02/12 06:36:39;;;;;;;8.35;4.80;;;11.80;67.20;;;;;;6283071;28;20043;-74
2024/02/12 06:39:42;;;;;;;9.13;4.32;;;11.80;67.30;;;;;;6283550;28;20020;-74
2024/02/12 06:42:43;;;;;;;10.55;5.13;;;11.70;67.30;;;;;;6285503;28;20040;-74
2024/02/12 06:45:43;;;;;;;11.52;5.15;;;11.70;67.30;;;;;;6286045;28;20483;-75
2024/02/12 06:48:46;;;;;;;11.15;5.38;;;11.70;67.60;;;;;;6287159;28;21369;-75
2024/02/12 06:51:47;;;;;;;9.63;5.18;;;11.50;67.80;;;;;;6288982;28;20043;-75
2024/02/12 06:54:48;;;;;;;10.40;5.40;;;11.60;67.90;;;;;;6290937;28;20085;-74
2024/02/12 06:57:49;;;;;;;12.50;5.60;;;11.50;68.10;;;;;;6290440;28;20021;-73
2024/02/12 07:00:54;;;;;;;10.77;4.70;;;11.60;68.20;;;;;;6289059;28;20119;-74
2024/02/12 07:03:55;;;;;;;15.43;5.55;;;11.60;68.20;;;;;;6285988;28;20032;-74
2024/02/12 07:06:56;;;;;;;15.82;5.85;;;11.60;68.10;;;;;;6303400;28;20039;-73
2024/02/12 07:09:57;;;;;;;9.30;4.63;;;11.60;68.20;;;;;;6290818;28;20057;-74
2024/02/12 07:12:58;;;;;;;10.30;4.68;;;11.70;68.20;;;;;;6291268;28;20032;-74
2024/02/12 07:15:59;;;;;;;11.25;5.88;;;11.70;68.00;;;;;;6283253;28;20030;-75
2024/02/12 07:19:00;;;;;;;8.02;4.45;;;11.80;67.90;;;;;;6294142;28;20122;-74
2024/02/12 07:22:01;;;;;;;9.73;4.95;;;11.70;67.70;;;;;;6281302;28;20069;-74
2024/02/12 07:25:03;;;;;;;8.18;4.80;;;11.70;67.70;;;;;;6288044;28;20041;-74
2024/02/12 07:28:04;;;;;;;10.88;5.72;;;11.60;67.90;;;;;;6287656;28;20020;-74
2024/02/12 07:31:07;;;;;;;14.05;5.63;;;11.60;68.00;;;;;;6283776;28;20130;-73
2024/02/12 07:34:08;;;;;;;15.57;6.80;;;11.60;68.10;;;;;;6292798;28;20032;-75
2024/02/12 07:37:09;;;;;;;13.15;5.38;;;11.60;68.10;;;;;;6294123;28;20020;-74
2024/02/12 07:40:13;;;;;;;13.27;5.78;;;11.60;68.30;;;;;;6280563;28;20128;-75
2024/02/12 07:43:14;;;;;;;8.88;4.75;;;11.70;68.50;;;;;;6287581;28;20023;-75
2024/02/12 07:46:15;;;;;;;10.05;5.15;;;11.70;68.40;;;;;;6296510;28;20016;-75
2024/02/12 07:49:19;;;;;;;11.20;6.13;;;11.80;68.50;;;;;;6293935;28;20172;-75
2024/02/12 07:52:19;;;;;;;13.38;6.05;;;11.80;68.40;;;;;;6307755;28;20070;-75
2024/02/12 07:55:21;;;;;;;15.23;6.35;;;11.80;68.40;;;;;;6292371;28;20660;-75
2024/02/12 07:58:22;;;;;;;17.02;5.57;;;11.90;68.20;;;;;;6304826;28;20053;-76
2024/02/12 08:01:23;;;;;;;14.20;6.15;;;11.90;68.00;;;;;;6281894;28;20024;-75
2024/02/12 08:04:24;;;;;;;19.27;6.63;;;11.90;67.80;;;;;;6289716;28;20350;-75
2024/02/12 08:11:48;;;;;;;13.73;7.03;;;12.00;68.00;;;;;;6275305;28;20048;-75
2024/02/12 08:14:51;;;;;;;8.65;5.05;;;12.00;67.90;;;;;;6290274;28;20465;-77
2024/02/12 08:17:55;;;;;;;9.82;5.07;;;12.10;67.70;;;;;;6298439;28;20112;-74
2024/02/12 08:20:56;;;;;;;22.50;7.38;;;12.10;67.80;;;;;;6304340;28;20015;-75
2024/02/12 08:23:57;;;;;;;13.27;6.55;;;12.10;67.70;;;;;;6300685;28;20452;-75
2024/02/12 08:26:57;;;;;;;10.23;5.07;;;12.20;67.60;;;;;;6306444;28;20106;-74
2024/02/12 08:29:58;;;;;;;12.80;5.65;;;12.10;67.50;;;;;;6295076;28;20126;-75
2024/02/12 08:32:59;;;;;;;18.95;7.53;;;12.20;67.50;;;;;;6304976;28;20491;-75
2024/02/12 08:36:02;;;;;;;24.08;10.25;;;12.30;67.50;;;;;;6285441;28;20060;-75
2024/02/12 08:39:04;;;;;;;22.30;9.85;;;12.30;67.30;;;;;;6298457;28;20028;-78
2024/02/12 08:42:05;;;;;;;25.42;10.55;;;12.40;67.00;;;;;;6282153;28;20485;-75
2024/02/12 08:45:08;;;;;;;21.52;9.07;;;12.50;66.80;;;;;;6285333;28;20123;-74
2024/02/12 08:48:09;;;;;;;17.48;7.88;;;12.50;66.50;;;;;;6295314;28;20016;-77
2024/02/12 08:51:09;;;;;;;19.17;8.15;;;12.50;66.30;;;;;;6302739;28;20450;-75
2024/02/12 08:54:10;;;;;;;15.55;8.25;;;12.70;66.20;;;;;;6302522;28;20032;-76
2024/02/12 08:57:14;;;;;;;8.95;5.45;;;12.80;66.20;;;;;;6295784;28;20477;-74
2024/02/12 09:00:18;;;;;;;11.50;6.30;;;12.90;65.90;;;;;;6292578;28;20038;-77
2024/02/12 09:03:20;;;;;;;28.52;9.15;;;13.10;65.50;;;;;;6307442;28;20028;-75
2024/02/12 09:06:21;;;;;;;22.52;7.93;;;13.10;64.90;;;;;;6295270;28;20024;-76
2024/02/12 09:09:22;;;;;;;18.83;7.32;;;13.20;64.90;;;;;;6293595;28;20040;-76
2024/02/12 09:12:23;;;;;;;13.48;6.25;;;13.30;64.50;;;;;;6282001;28;20036;-76
2024/02/12 09:15:24;;;;;;;12.75;5.95;;;13.40;64.40;;;;;;6285517;28;20090;-77
2024/02/12 09:18:29;;;;;;;11.80;6.68;;;13.50;64.10;;;;;;6290974;28;20113;-77
2024/02/12 09:21:29;;;;;;;12.13;6.50;;;13.60;63.90;;;;;;6282841;28;20024;-78
2024/02/12 09:24:32;;;;;;;15.77;6.95;;;13.60;63.50;;;;;;6291372;28;20075;-77
2024/02/12 09:27:33;;;;;;;12.75;5.57;;;13.60;63.10;;;;;;6280726;28;20111;-76
2024/02/12 09:30:34;;;;;;;16.52;6.55;;;13.50;62.80;;;;;;6279790;28;20023;-76
2024/02/12 09:33:35;;;;;;;20.50;10.52;;;13.80;62.80;;;;;;6280289;28;20040;-72
2024/02/12 09:36:38;;;;;;;12.38;7.32;;;13.80;62.10;;;;;;6299875;28;20041;-73
2024/02/12 09:39:38;;;;;;;13.35;6.85;;;14.00;60.90;;;;;;6298939;28;20020;-76
2024/02/12 09:42:40;;;;;;;11.65;6.30;;;14.00;60.00;;;;;;6305896;28;20020;-74
2024/02/12 09:45:44;;;;;;;12.10;6.30;;;14.10;59.90;;;;;;6282893;28;20021;-76
2024/02/12 09:48:45;;;;;;;10.57;5.95;;;14.10;59.70;;;;;;6289339;28;20153;-76
2024/02/12 09:51:49;;;;;;;14.15;5.82;;;14.10;59.90;;;;;;6299846;28;20448;-76
2024/02/12 09:54:51;;;;;;;12.88;6.25;;;14.20;59.90;;;;;;6289947;28;20850;-75
2024/02/12 09:57:52;;;;;;;13.48;5.90;;;14.40;59.90;;;;;;6304278;28;20016;-76
2024/02/12 10:00:53;;;;;;;11.27;5.47;;;14.40;60.00;;;;;;6292807;28;20057;-76
2024/02/12 10:03:55;;;;;;;9.35;4.32;;;14.50;59.60;;;;;;6280800;28;20173;-76
2024/02/12 10:06:57;;;;;;;23.17;9.07;;;14.60;59.40;;;;;;6299284;28;20103;-75
2024/02/12 10:09:57;;;;;;;9.23;4.55;;;14.70;59.20;;;;;;6300582;28;20071;-76
2024/02/12 10:12:58;;;;;;;4.25;3.10;;;14.80;59.10;;;;;;6280785;28;20043;-75
2024/02/12 10:16:00;;;;;;;5.22;3.05;;;14.90;59.00;;;;;;6290490;28;20417;-76
2024/02/12 10:19:03;;;;;;;5.55;3.17;;;15.00;58.50;;;;;;6290116;28;20096;-75
2024/02/12 10:22:04;;;;;;;8.23;4.10;;;15.00;58.10;;;;;;6285467;28;20048;-75
2024/02/12 10:25:05;;;;;;;10.02;3.55;;;15.10;57.60;;;;;;6289193;28;20020;-75
2024/02/12 10:28:07;;;;;;;11.20;4.97;;;15.10;57.20;;;;;;6296536;28;20737;-74
2024/02/12 10:31:08;;;;;;;7.03;3.33;;;15.00;57.00;;;;;;6299022;28;20024;-76
2024/02/12 10:34:10;;;;;;;10.90;3.08;;;15.00;56.90;;;;;;6283430;28;20211;-76
2024/02/12 10:37:14;;;;;;;6.75;3.45;;;15.00;56.50;;;;;;6285073;28;20020;-76
2024/02/12 10:40:17;;;;;;;5.90;2.67;;;15.00;56.10;;;;;;6292628;28;20020;-77
2024/02/12 10:43:23;;;;;;;3.60;2.08;;;15.00;55.80;;;;;;6309850;28;20016;-74
2024/02/12 10:46:25;;;;;;;4.07;1.90;;;15.10;55.60;;;;;;6299811;28;20031;-75
2024/02/12 10:49:27;;;;;;;5.43;2.50;;;15.20;55.10;;;;;;6295471;28;20437;-76
2024/02/12 10:52:29;;;;;;;4.65;2.72;;;15.30;54.80;;;;;;6309823;28;20076;-76
2024/02/12 10:55:30;;;;;;;6.18;3.25;;;15.40;54.10;;;;;;6302231;28;20040;-76
2024/02/12 10:58:31;;;;;;;16.33;3.03;;;15.40;54.10;;;;;;6293748;28;20051;-74
2024/02/12 11:01:33;;;;;;;6.00;2.50;;;15.50;54.00;;;;;;6300153;28;20030;-75
2024/02/12 11:04:37;;;;;;;8.32;3.47;;;15.40;53.60;;;;;;6284145;28;20020;-77
2024/02/12 11:07:38;;;;;;;5.22;3.15;;;15.50;54.00;;;;;;6305721;28;20016;-77
2024/02/12 11:10:43;;;;;;;6.30;2.92;;;15.60;54.70;;;;;;6295396;28;20040;-75
2024/02/12 11:13:45;;;;;;;6.47;3.55;;;15.60;54.00;;;;;;6309109;28;20443;-75
2024/02/12 11:16:50;;;;;;;11.73;4.38;;;15.70;54.30;;;;;;6308135;28;20152;-75
2024/02/12 11:19:51;;;;;;;4.22;2.65;;;15.80;54.10;;;;;;6288259;28;20111;-75
2024/02/12 11:22:55;;;;;;;9.90;4.50;;;15.80;54.40;;;;;;6300336;28;20024;-75
2024/02/12 11:25:59;;;;;;;13.05;4.85;;;15.90;54.50;;;;;;6285825;28;20037;-74
2024/02/12 11:29:03;;;;;;;7.65;3.13;;;16.00;54.30;;;;;;6277643;28;20024;-76
2024/02/12 11:32:05;;;;;;;11.50;4.35;;;16.10;54.10;;;;;;6306408;28;20772;-75
2024/02/12 11:35:14;;;;;;;13.15;6.10;;;16.50;53.60;;;;;;6296034;28;20110;-76
2024/02/12 11:38:15;;;;;;;9.68;2.85;;;16.70;53.40;;;;;;6287303;28;20082;-77
2024/02/12 11:41:16;;;;;;;8.35;4.25;;;17.00;52.80;;;;;;6298162;28;20061;-76
2024/02/12 11:44:16;;;;;;;10.02;3.80;;;17.40;52.10;;;;;;6282607;28;20540;-75
2024/02/12 11:47:28;;;;;;;4.10;1.77;;;17.60;51.00;;;;;;6291742;28;20169;-75
2024/02/12 11:50:28;;;;;;;5.78;2.55;;;18.00;50.60;;;;;;6296631;28;20024;-75
2024/02/12 11:53:29;;;;;;;9.88;2.42;;;18.40;49.30;;;;;;6302429;28;20099;-76
2024/02/12 11:56:30;;;;;;;5.15;2.13;;;18.60;48.60;;;;;;6300995;28;20082;-75
2024/02/12 11:59:31;;;;;;;4.13;1.55;;;18.70;48.60;;;;;;6282305;28;20450;-75
2024/02/12 12:02:33;;;;;;;2.33;1.50;;;18.60;48.30;;;;;;6282265;28;20016;-75
2024/02/12 12:05:37;;;;;;;2.25;1.30;;;18.50;48.10;;;;;;6288130;28;20046;-75
2024/02/12 12:08:38;;;;;;;7.70;2.13;;;18.50;48.00;;;;;;6298185;28;20043;-76
2024/02/12 12:11:48;;;;;;;2.67;1.40;;;18.50;47.90;;;;;;6276509;28;20032;-76
2024/02/12 12:14:48;;;;;;;4.93;2.08;;;18.40;47.30;;;;;;6307602;28;20039;-76
2024/02/12 12:17:49;;;;;;;3.60;1.60;;;18.30;47.20;;;;;;6290406;28;20039;-76
2024/02/12 12:20:54;;;;;;;4.05;2.17;;;18.30;47.40;;;;;;6282814;28;20130;-76
2024/02/12 12:23:56;;;;;;;5.65;2.15;;;18.40;46.90;;;;;;6303680;28;20122;-77
2024/02/12 12:26:57;;;;;;;4.03;2.03;;;18.50;46.80;;;;;;6301458;28;20027;-76
2024/02/12 12:29:58;;;;;;;4.00;1.67;;;18.60;46.70;;;;;;6304129;28;20067;-75
2024/02/12 12:32:59;;;;;;;4.15;1.45;;;18.70;46.60;;;;;;6291829;28;20028;-75
2024/02/12 12:36:00;;;;;;;4.53;1.67;;;18.60;45.90;;;;;;6283958;28;20032;-75
2024/02/12 12:39:00;;;;;;;3.50;1.80;;;18.50;45.60;;;;;;6290040;28;20173;-75
2024/02/12 12:42:02;;;;;;;6.82;1.52;;;18.40;45.80;;;;;;6286346;28;20464;-75
2024/02/12 12:45:04;;;;;;;3.72;1.90;;;18.30;46.10;;;;;;6282177;28;20020;-76
2024/02/12 12:48:07;;;;;;;2.70;1.77;;;18.30;46.10;;;;;;6287587;28;20020;-76
2024/02/12 12:51:08;;;;;;;5.50;2.03;;;18.20;46.10;;;;;;6306504;28;20032;-75
2024/02/12 12:54:11;;;;;;;3.78;1.80;;;18.00;46.00;;;;;;6283444;28;20040;-75
2024/02/12 12:57:12;;;;;;;4.22;2.20;;;18.20;45.80;;;;;;6284276;28;20067;-76
2024/02/12 13:00:25;;;;;;;2.35;1.23;;;18.20;45.70;;;;;;6290651;28;20039;-76
2024/02/12 13:03:26;;;;;;;4.05;1.55;;;18.10;45.40;;;;;;6296166;28;20027;-76
2024/02/12 13:06:28;;;;;;;1.48;1.27;;;18.00;45.10;;;;;;6283240;28;20016;-76
2024/02/12 13:09:28;;;;;;;2.58;1.13;;;18.00;45.50;;;;;;6294797;28;20028;-75
2024/02/12 13:12:32;;;;;;;2.00;1.15;;;18.00;46.30;;;;;;6281712;28;20032;-76
2024/02/12 13:15:33;;;;;;;4.60;1.33;;;18.00;45.50;;;;;;6281749;28;20113;-74
2024/02/12 13:18:34;;;;;;;1.77;1.10;;;17.90;45.50;;;;;;6280935;28;20100;-75
2024/02/12 13:21:38;;;;;;;1.02;0.82;;;17.90;45.50;;;;;;6304387;28;20632;-76
2024/02/12 13:24:43;;;;;;;2.38;1.10;;;17.80;45.60;;;;;;6306576;28;20123;-75
2024/02/12 13:27:44;;;;;;;2.08;1.23;;;17.80;45.90;;;;;;6281448;28;20028;-75
2024/02/12 13:30:46;;;;;;;3.70;1.70;;;17.80;45.80;;;;;;6272716;28;20016;-74
2024/02/12 13:33:47;;;;;;;1.48;1.35;;;17.80;45.80;;;;;;6276749;28;20029;-75
2024/02/12 13:36:52;;;;;;;2.05;1.35;;;17.70;45.70;;;;;;6282013;28;20095;-76
2024/02/12 13:39:53;;;;;;;2.55;1.13;;;17.70;45.50;;;;;;6305748;28;20066;-75
2024/02/12 13:42:56;;;;;;;2.90;1.20;;;17.60;45.50;;;;;;6290219;28;20381;-74
2024/02/12 13:46:01;;;;;;;1.52;1.13;;;17.50;45.40;;;;;;6304486;28;20127;-74
2024/02/12 13:49:02;;;;;;;1.88;1.27;;;17.40;45.40;;;;;;6282979;28;20036;-75
2024/02/12 13:52:03;;;;;;;1.50;0.85;;;17.30;45.50;;;;;;6307033;28;20024;-77
2024/02/12 13:55:11;;;;;;;3.72;1.42;;;17.30;45.40;;;;;;6311913;28;20100;-75
2024/02/12 13:58:12;;;;;;;2.43;1.17;;;17.20;45.30;;;;;;6302162;28;20020;-77
2024/02/12 14:01:42;;;;;;;4.63;1.20;;;17.10;45.40;;;;;;6292243;28;20266;-76
2024/02/12 14:04:43;;;;;;;2.08;0.90;;;17.10;45.70;;;;;;6287352;28;20107;-76
2024/02/12 14:07:49;;;;;;;2.85;1.00;;;17.00;45.60;;;;;;6294051;28;20070;-75
2024/02/12 14:10:50;;;;;;;3.80;0.80;;;17.00;45.70;;;;;;6299147;28;20103;-76
2024/02/12 14:13:51;;;;;;;1.38;0.90;;;17.00;45.70;;;;;;6285796;28;20314;-76
2024/02/12 14:16:54;;;;;;;2.17;1.00;;;17.00;45.50;;;;;;6285507;28;20019;-74
2024/02/12 14:19:55;;;;;;;3.00;1.27;;;17.00;45.30;;;;;;6288996;28;20096;-75
2024/02/12 14:23:00;;;;;;;1.90;1.00;;;17.00;45.30;;;;;;6283945;28;20723;-76
2024/02/12 14:26:01;;;;;;;2.15;1.17;;;17.00;45.40;;;;;;6285927;28;20020;-74
2024/02/12 14:29:02;;;;;;;6.22;1.20;;;17.00;45.20;;;;;;6297693;28;20020;-75
2024/02/12 14:32:03;;;;;;;2.65;0.88;;;16.90;45.30;;;;;;6296198;28;20028;-76
2024/02/12 14:35:05;;;;;;;1.77;1.13;;;16.80;45.30;;;;;;6290071;28;20056;-75
2024/02/12 14:38:08;;;;;;;5.55;1.13;;;16.70;45.50;;;;;;6286764;28;20043;-75
2024/02/12 14:41:09;;;;;;;2.67;1.20;;;16.70;45.60;;;;;;6284609;28;20023;-75
2024/02/12 14:44:10;;;;;;;3.47;1.40;;;16.70;45.70;;;;;;6298615;28;20013;-75
2024/02/12 14:47:11;;;;;;;6.40;1.52;;;16.60;46.00;;;;;;6296028;28;20024;-75
2024/02/12 14:50:12;;;;;;;4.85;0.95;;;16.60;46.20;;;;;;6283649;28;20711;-75
2024/02/12 14:53:13;;;;;;;1.33;0.68;;;16.60;46.30;;;;;;6297328;28;20091;-75
2024/02/12 14:56:14;;;;;;;3.55;1.38;;;16.60;46.50;;;;;;6281440;28;20082;-76
2024/02/12 14:59:15;;;;;;;2.85;1.10;;;16.50;46.70;;;;;;6292601;28;20419;-76
2024/02/12 15:02:16;;;;;;;3.33;1.40;;;16.50;46.90;;;;;;6298581;28;20035;-74
2024/02/12 15:05:18;;;;;;;3.60;1.10;;;16.50;47.00;;;;;;6282995;28;20491;-76
2024/02/12 15:08:19;;;;;;;4.43;1.17;;;16.50;46.90;;;;;;6281431;28;20522;-76
2024/02/12 15:11:20;;;;;;;3.05;1.60;;;16.50;46.90;;;;;;6295014;28;20028;-75
2024/02/12 15:18:45;;;;;;;8.52;2.05;;;16.40;47.40;;;;;;6290016;28;20036;-75
2024/02/12 15:21:46;;;;;;;5.00;1.45;;;16.30;47.80;;;;;;6291990;28;20036;-75
2024/02/12 15:24:47;;;;;;;1.67;1.27;;;16.30;48.10;;;;;;6294801;28;20097;-76
2024/02/12 15:27:49;;;;;;;2.15;1.10;;;16.30;48.20;;;;;;6307870;28;20151;-77
2024/02/12 15:30:50;;;;;;;3.08;1.13;;;16.30;48.20;;;;;;6288837;28;20016;-75
2024/02/12 15:33:51;;;;;;;3.17;1.42;;;16.30;48.30;;;;;;6295133;28;20632;-76
2024/02/12 15:36:52;;;;;;;2.70;1.15;;;16.30;48.30;;;;;;6305856;28;20135;-76
2024/02/12 15:39:53;;;;;;;3.08;1.10;;;16.20;48.30;;;;;;6290561;28;20040;-76
2024/02/12 15:42:53;;;;;;;1.45;1.02;;;16.20;48.30;;;;;;6269397;28;20020;-75
2024/02/12 15:45:58;;;;;;;7.15;1.25;;;16.10;48.50;;;;;;6256846;28;20138;-74
2024/02/12 15:48:59;;;;;;;1.63;1.10;;;16.10;48.60;;;;;;6228102;28;1208748;-75
2024/02/12 15:52:00;;;;;;;1.75;1.10;;;16.20;48.70;;;;;;6294362;28;20024;-76
2024/02/12 15:55:01;;;;;;;4.72;1.52;;;16.20;48.60;;;;;;6307057;28;20081;-75
2024/02/12 15:58:02;;;;;;;3.50;1.10;;;16.30;48.50;;;;;;6302651;28;20020;-75
2024/02/12 16:01:03;;;;;;;3.50;1.10;;;16.30;48.50;;;;;;6290547;28;20016;-75
2024/02/12 16:04:04;;;;;;;3.00;1.02;;;16.40;48.50;;;;;;6294054;28;20177;-76
2024/02/12 16:07:08;;;;;;;3.20;1.63;;;16.40;48.30;;;;;;6307496;28;20112;-75
2024/02/12 16:10:09;;;;;;;1.10;0.80;;;16.40;48.10;;;;;;6293841;28;20822;-76